Time;durP1;ratioP1;P1;durP2;ratioP2;P2;SDS_P1;SDS_P2;PMS_P1;PMS_P2;Temp;Humidity;BMP_temperature;BMP_pressure;BME280_temperature;BME280_humidity;BME280_pressure;Samples;Min_cycle;Max_cycle;Signal;HPM_P1;HPM_P2
2022/08/01 00:01:12;;;;;;;16.63;9.80;;;;;;;;;;5032686;28;20017;-77
2022/08/01 00:03:38;;;;;;;18.90;11.05;;;;;;;;;;5032563;28;20022;-78
2022/08/01 00:06:04;;;;;;;17.40;10.77;;;;;;;;;;5032502;28;20071;-78
2022/08/01 00:08:31;;;;;;;17.42;10.50;;;;;;;;;;5047767;28;20029;-78
2022/08/01 00:10:57;;;;;;;21.30;11.70;;;;;;;;;;5032629;28;20363;-78
2022/08/01 00:13:23;;;;;;;21.38;10.90;;;;;;;;;;5032320;28;20336;-78
2022/08/01 00:15:49;;;;;;;20.05;11.20;;;;;;;;;;5032321;28;20785;-78
2022/08/01 00:18:15;;;;;;;16.65;10.60;;;;;;;;;;5032493;28;20468;-78
2022/08/01 00:20:41;;;;;;;16.60;10.45;;;;;;;;;;5032264;28;20021;-78
2022/08/01 00:23:07;;;;;;;17.65;9.52;;;;;;;;;;5047786;28;20030;-78
2022/08/01 00:25:33;;;;;;;18.92;10.63;;;;;;;;;;5047761;28;20122;-77
2022/08/01 00:27:59;;;;;;;15.55;9.98;;;;;;;;;;5032395;28;20487;-78
2022/08/01 00:30:25;;;;;;;18.42;9.65;;;;;;;;;;5032275;28;20079;-78
2022/08/01 00:32:51;;;;;;;20.20;10.70;;;;;;;;;;5032136;28;20029;-78
2022/08/01 00:35:17;;;;;;;18.30;9.65;;;;;;;;;;5032394;28;20046;-77
2022/08/01 00:37:43;;;;;;;17.42;9.73;;;;;;;;;;5032347;28;20409;-78
2022/08/01 00:40:10;;;;;;;14.82;9.10;;;;;;;;;;5047490;28;20364;-78
2022/08/01 00:42:36;;;;;;;15.70;8.52;;;;;;;;;;5032144;28;20022;-78
2022/08/01 00:45:02;;;;;;;12.57;8.05;;;;;;;;;;5027274;28;20108;-77
2022/08/01 00:47:28;;;;;;;13.35;8.23;;;;;;;;;;5014534;28;20087;-77
2022/08/01 00:49:54;;;;;;;11.07;7.20;;;;;;;;;;5025786;28;20042;-77
2022/08/01 00:52:20;;;;;;;11.45;7.60;;;;;;;;;;5035894;28;20454;-77
2022/08/01 00:54:46;;;;;;;10.57;7.15;;;;;;;;;;5034159;28;20022;-78
2022/08/01 00:57:12;;;;;;;12.02;6.88;;;;;;;;;;5034101;28;20021;-78
2022/08/01 00:59:39;;;;;;;14.85;8.32;;;;;;;;;;5035539;28;20033;-78
2022/08/01 01:02:05;;;;;;;12.65;7.18;;;;;;;;;;5035591;28;20018;-78
2022/08/01 01:04:31;;;;;;;17.42;8.02;;;;;;;;;;5034084;28;20021;-78
2022/08/01 01:07:07;;;;;;;16.33;8.88;;;;;;;;;;5035551;28;20105;-78
2022/08/01 01:09:40;;;;;;;17.77;9.07;;;;;;;;;;5035642;28;20453;-78
2022/08/01 01:12:18;;;;;;;17.25;8.95;;;;;;;;;;5034201;28;20029;-78
2022/08/01 01:15:07;;;;;;;18.33;8.52;;;;;;;;;;5034059;28;20041;-77
2022/08/01 01:17:37;;;;;;;23.02;9.80;;;;;;;;;;5033770;28;20075;-77
2022/08/01 01:20:04;;;;;;;20.27;9.13;;;;;;;;;;5034082;28;20022;-79
2022/08/01 01:22:37;;;;;;;18.52;8.38;;;;;;;;;;5035158;28;20030;-78
2022/08/01 01:25:18;;;;;;;17.80;9.00;;;;;;;;;;5034992;28;20029;-78
2022/08/01 01:27:47;;;;;;;16.42;7.95;;;;;;;;;;5050359;28;20099;-78
2022/08/01 01:30:13;;;;;;;14.55;7.95;;;;;;;;;;5050377;28;20033;-78
2022/08/01 01:32:41;;;;;;;19.80;8.20;;;;;;;;;;5050517;28;20427;-78
2022/08/01 01:35:14;;;;;;;14.98;7.95;;;;;;;;;;5034618;28;20037;-78
2022/08/01 01:37:41;;;;;;;16.17;7.28;;;;;;;;;;5035023;28;20030;-78
2022/08/01 01:40:08;;;;;;;23.98;8.85;;;;;;;;;;5034806;28;20021;-78
2022/08/01 01:42:35;;;;;;;17.88;8.80;;;;;;;;;;5050016;28;20029;-78
2022/08/01 01:45:03;;;;;;;17.90;8.60;;;;;;;;;;5034844;28;20078;-78
2022/08/01 01:47:30;;;;;;;21.60;8.57;;;;;;;;;;5034523;28;20021;-78
2022/08/01 01:49:57;;;;;;;15.88;8.45;;;;;;;;;;5034438;28;20116;-77
2022/08/01 01:52:24;;;;;;;18.00;9.27;;;;;;;;;;5034458;28;20057;-77
2022/08/01 01:54:52;;;;;;;16.10;8.68;;;;;;;;;;5033891;28;20021;-77
2022/08/01 01:57:18;;;;;;;17.05;9.23;;;;;;;;;;5014001;28;20520;-77
2022/08/01 01:59:46;;;;;;;16.27;8.95;;;;;;;;;;5014108;28;20061;-77
2022/08/01 02:02:13;;;;;;;19.10;9.35;;;;;;;;;;5014116;28;20022;-77
2022/08/01 02:04:42;;;;;;;20.20;8.80;;;;;;;;;;5014192;28;20065;-77
2022/08/01 02:07:09;;;;;;;19.52;9.20;;;;;;;;;;5012957;28;20028;-77
2022/08/01 02:09:36;;;;;;;17.83;8.25;;;;;;;;;;5014220;28;20054;-78
2022/08/01 02:12:02;;;;;;;16.85;9.18;;;;;;;;;;5014040;28;20108;-77
2022/08/01 02:14:29;;;;;;;22.10;9.20;;;;;;;;;;5012710;28;20029;-77
2022/08/01 02:16:55;;;;;;;15.15;7.93;;;;;;;;;;5014052;28;20057;-78
2022/08/01 02:19:21;;;;;;;15.70;8.13;;;;;;;;;;5014172;28;20358;-77
2022/08/01 02:21:56;;;;;;;16.88;8.30;;;;;;;;;;5013872;28;20018;-77
2022/08/01 02:24:22;;;;;;;16.77;8.50;;;;;;;;;;5013913;28;20033;-77
2022/08/01 02:26:51;;;;;;;12.60;7.70;;;;;;;;;;5013844;28;20185;-77
2022/08/01 02:29:26;;;;;;;17.05;8.27;;;;;;;;;;5013942;28;20770;-77
2022/08/01 02:31:54;;;;;;;19.63;8.43;;;;;;;;;;5013259;28;20113;-77
2022/08/01 02:34:20;;;;;;;16.88;8.63;;;;;;;;;;5011557;28;20092;-77
2022/08/01 02:36:47;;;;;;;14.82;8.13;;;;;;;;;;5012567;28;20088;-78
2022/08/01 02:39:15;;;;;;;18.38;9.50;;;;;;;;;;5012676;28;20037;-77
2022/08/01 02:41:42;;;;;;;18.27;9.27;;;;;;;;;;5012743;28;20460;-77
2022/08/01 02:44:10;;;;;;;18.70;9.10;;;;;;;;;;5012699;28;20029;-77
2022/08/01 02:46:41;;;;;;;16.60;8.73;;;;;;;;;;5012605;28;20073;-77
2022/08/01 02:49:10;;;;;;;22.92;8.95;;;;;;;;;;5012451;28;20018;-77
2022/08/01 02:51:37;;;;;;;16.15;7.97;;;;;;;;;;5032237;28;20029;-77
2022/08/01 02:54:04;;;;;;;16.52;7.28;;;;;;;;;;5032256;28;20777;-77
2022/08/01 02:56:34;;;;;;;12.73;6.10;;;;;;;;;;5032195;28;20079;-77
2022/08/01 02:59:11;;;;;;;11.98;5.97;;;;;;;;;;5032088;28;20030;-77
2022/08/01 03:01:38;;;;;;;11.10;6.20;;;;;;;;;;5030647;28;20164;-77
2022/08/01 03:04:05;;;;;;;15.30;7.38;;;;;;;;;;5030591;28;20554;-78
2022/08/01 03:06:32;;;;;;;14.25;7.82;;;;;;;;;;5030252;28;20396;-77
2022/08/01 03:08:58;;;;;;;16.23;7.40;;;;;;;;;;5031985;28;20036;-77
2022/08/01 03:11:26;;;;;;;13.80;7.72;;;;;;;;;;5032087;28;20034;-77
2022/08/01 03:13:53;;;;;;;15.30;8.05;;;;;;;;;;5032075;28;20017;-77
2022/08/01 03:16:21;;;;;;;17.27;8.40;;;;;;;;;;5032923;28;20041;-77
2022/08/01 03:18:49;;;;;;;18.95;8.70;;;;;;;;;;5031337;28;20040;-77
2022/08/01 03:21:16;;;;;;;19.17;9.15;;;;;;;;;;5032658;28;20426;-77
2022/08/01 03:23:43;;;;;;;21.38;10.10;;;;;;;;;;5027924;28;20018;-77
2022/08/01 03:26:10;;;;;;;18.60;8.95;;;;;;;;;;5012556;28;20503;-77
2022/08/01 03:28:36;;;;;;;16.38;8.15;;;;;;;;;;5012592;28;20488;-77
2022/08/01 03:31:02;;;;;;;21.95;9.75;;;;;;;;;;5012480;28;20041;-77
2022/08/01 03:33:29;;;;;;;17.50;9.00;;;;;;;;;;5012387;28;20416;-77
2022/08/01 03:35:56;;;;;;;19.10;8.27;;;;;;;;;;5012085;28;20057;-77
2022/08/01 03:38:23;;;;;;;18.25;8.90;;;;;;;;;;5012164;28;20022;-77
2022/08/01 03:41:09;;;;;;;17.40;9.23;;;;;;;;;;5012314;28;20037;-77
2022/08/01 03:43:41;;;;;;;18.98;8.20;;;;;;;;;;5031295;28;20035;-77
2022/08/01 03:46:09;;;;;;;19.88;8.73;;;;;;;;;;5031763;28;20025;-77
2022/08/01 03:48:37;;;;;;;18.63;8.63;;;;;;;;;;5031515;28;20083;-77
2022/08/01 03:51:03;;;;;;;13.68;8.07;;;;;;;;;;5031827;28;20030;-77
2022/08/01 03:53:31;;;;;;;19.63;9.38;;;;;;;;;;5031637;28;20025;-77
2022/08/01 03:55:58;;;;;;;15.77;8.38;;;;;;;;;;5031537;28;20430;-77
2022/08/01 03:58:24;;;;;;;16.52;8.38;;;;;;;;;;5031353;28;20056;-77
2022/08/01 04:00:51;;;;;;;17.60;9.18;;;;;;;;;;5031501;28;20029;-77
2022/08/01 04:03:17;;;;;;;16.77;9.15;;;;;;;;;;5031527;28;20108;-77
2022/08/01 04:05:43;;;;;;;18.67;9.23;;;;;;;;;;5030394;28;20028;-77
2022/08/01 04:08:10;;;;;;;17.20;9.30;;;;;;;;;;5030281;28;20124;-77
2022/08/01 04:10:37;;;;;;;17.90;8.77;;;;;;;;;;5030085;28;20593;-77
2022/08/01 04:13:03;;;;;;;20.98;9.90;;;;;;;;;;5031726;28;20025;-77
2022/08/01 04:15:29;;;;;;;22.73;10.23;;;;;;;;;;5031843;28;20474;-77
2022/08/01 04:17:55;;;;;;;16.58;9.25;;;;;;;;;;5031883;28;20116;-77
2022/08/01 04:20:21;;;;;;;23.10;10.63;;;;;;;;;;5035135;28;20025;-77
2022/08/01 04:22:47;;;;;;;19.23;9.90;;;;;;;;;;5034787;28;20692;-77
2022/08/01 04:25:18;;;;;;;20.95;10.07;;;;;;;;;;5036202;28;20025;-77
2022/08/01 04:27:45;;;;;;;17.48;9.55;;;;;;;;;;5036265;28;20026;-77
2022/08/01 04:30:12;;;;;;;18.50;9.60;;;;;;;;;;5035788;28;20033;-77
2022/08/01 04:32:39;;;;;;;18.73;9.35;;;;;;;;;;5035861;28;20033;-77
2022/08/01 04:35:07;;;;;;;16.55;9.55;;;;;;;;;;5035653;28;20069;-77
2022/08/01 04:37:36;;;;;;;16.80;8.65;;;;;;;;;;5035603;28;20928;-77
2022/08/01 04:40:04;;;;;;;18.48;9.32;;;;;;;;;;5035779;28;20025;-77
2022/08/01 04:42:30;;;;;;;13.50;7.80;;;;;;;;;;5035425;28;20100;-77
2022/08/01 04:44:56;;;;;;;15.88;8.63;;;;;;;;;;5029388;28;20022;-77
2022/08/01 04:47:23;;;;;;;16.80;8.55;;;;;;;;;;5015703;28;20743;-77
2022/08/01 04:49:49;;;;;;;15.40;7.95;;;;;;;;;;5015901;28;20032;-77
2022/08/01 04:52:17;;;;;;;19.20;7.90;;;;;;;;;;5015698;28;20026;-77
2022/08/01 04:54:43;;;;;;;15.95;8.07;;;;;;;;;;5024140;28;20091;-77
2022/08/01 04:57:10;;;;;;;17.13;8.98;;;;;;;;;;5033816;28;20092;-77
2022/08/01 04:59:40;;;;;;;19.58;8.05;;;;;;;;;;5034096;28;20026;-77
2022/08/01 05:02:08;;;;;;;17.83;8.63;;;;;;;;;;5035130;28;20981;-77
2022/08/01 05:04:34;;;;;;;12.13;6.72;;;;;;;;;;5033759;28;20029;-77
2022/08/01 05:07:00;;;;;;;11.98;7.28;;;;;;;;;;5033489;28;20079;-77
2022/08/01 05:09:26;;;;;;;12.88;6.32;;;;;;;;;;5035366;28;20040;-78
2022/08/01 05:11:53;;;;;;;10.65;5.90;;;;;;;;;;5034033;28;20052;-78
2022/08/01 05:14:19;;;;;;;7.60;4.60;;;;;;;;;;5034260;28;20364;-78
2022/08/01 05:16:45;;;;;;;6.18;3.95;;;;;;;;;;5033924;28;20021;-78
2022/08/01 05:19:12;;;;;;;5.57;3.83;;;;;;;;;;5034167;28;20017;-78
2022/08/01 05:21:38;;;;;;;8.07;3.65;;;;;;;;;;5034200;28;20026;-78
2022/08/01 05:24:05;;;;;;;5.10;3.30;;;;;;;;;;5023015;28;20030;-77
2022/08/01 05:26:31;;;;;;;5.75;3.03;;;;;;;;;;5031191;28;20022;-77
2022/08/01 05:28:57;;;;;;;6.55;2.85;;;;;;;;;;5035636;28;20041;-78
2022/08/01 05:31:23;;;;;;;4.43;2.78;;;;;;;;;;5034957;28;20025;-77
2022/08/01 05:33:49;;;;;;;8.48;2.35;;;;;;;;;;5034045;28;20037;-77
2022/08/01 05:36:15;;;;;;;4.53;2.30;;;;;;;;;;5035082;28;20050;-78
2022/08/01 05:38:41;;;;;;;2.92;2.25;;;;;;;;;;5034891;28;20061;-78
2022/08/01 05:41:07;;;;;;;2.50;1.55;;;;;;;;;;5035001;28;20379;-78
2022/08/01 05:43:33;;;;;;;2.58;1.85;;;;;;;;;;5034678;28;20428;-77
2022/08/01 05:46:00;;;;;;;4.00;2.08;;;;;;;;;;5034888;28;20423;-78
2022/08/01 05:48:26;;;;;;;3.30;1.60;;;;;;;;;;5033103;28;20367;-78
2022/08/01 05:50:53;;;;;;;2.95;1.70;;;;;;;;;;5035012;28;20029;-78
2022/08/01 05:53:19;;;;;;;3.65;1.55;;;;;;;;;;5034908;28;20026;-78
2022/08/01 05:55:45;;;;;;;2.03;1.58;;;;;;;;;;5034963;28;20701;-79
2022/08/01 05:58:11;;;;;;;2.72;1.70;;;;;;;;;;5050106;28;20119;-78
2022/08/01 06:00:37;;;;;;;2.58;1.70;;;;;;;;;;5050191;28;20103;-78
2022/08/01 06:03:03;;;;;;;5.00;1.85;;;;;;;;;;5034682;28;20483;-78
2022/08/01 06:05:29;;;;;;;2.60;1.80;;;;;;;;;;5034285;28;20018;-78
2022/08/01 06:07:55;;;;;;;6.78;2.00;;;;;;;;;;5034438;28;20029;-78
2022/08/01 06:10:21;;;;;;;3.70;2.10;;;;;;;;;;5049762;28;20026;-78
2022/08/01 06:12:47;;;;;;;2.42;1.67;;;;;;;;;;5034400;28;20430;-78
2022/08/01 06:15:14;;;;;;;3.03;2.00;;;;;;;;;;5034337;28;20040;-78
2022/08/01 06:17:41;;;;;;;3.42;2.45;;;;;;;;;;5049511;28;20025;-78
2022/08/01 06:20:07;;;;;;;3.33;2.03;;;;;;;;;;5049617;28;20482;-78
2022/08/01 06:22:33;;;;;;;4.68;2.10;;;;;;;;;;5034448;28;20056;-78
2022/08/01 06:24:59;;;;;;;2.65;2.10;;;;;;;;;;5034751;28;20025;-78
2022/08/01 06:27:25;;;;;;;3.80;2.17;;;;;;;;;;5049718;28;20029;-78
2022/08/01 06:29:56;;;;;;;3.45;1.85;;;;;;;;;;5049600;28;20465;-78
2022/08/01 06:32:22;;;;;;;3.70;2.50;;;;;;;;;;5034163;28;20032;-78
2022/08/01 06:34:48;;;;;;;8.52;2.72;;;;;;;;;;5049320;28;20306;-78
2022/08/01 06:37:15;;;;;;;5.32;2.58;;;;;;;;;;5033477;28;20048;-78
2022/08/01 06:39:41;;;;;;;4.35;2.40;;;;;;;;;;5033670;28;20026;-78
2022/08/01 06:42:09;;;;;;;4.57;2.25;;;;;;;;;;5033337;28;20022;-78
2022/08/01 06:44:35;;;;;;;9.50;2.80;;;;;;;;;;5030083;28;20111;-77
2022/08/01 06:47:01;;;;;;;4.88;2.83;;;;;;;;;;5026546;28;20048;-78
2022/08/01 06:49:27;;;;;;;5.13;2.45;;;;;;;;;;5033509;28;20026;-77
2022/08/01 06:51:53;;;;;;;5.53;2.35;;;;;;;;;;5033624;28;20113;-78
2022/08/01 06:54:19;;;;;;;3.83;2.33;;;;;;;;;;5033743;28;20026;-78
2022/08/01 06:56:45;;;;;;;6.35;3.20;;;;;;;;;;5033375;28;20100;-78
2022/08/01 06:59:11;;;;;;;4.45;2.70;;;;;;;;;;5031490;28;20029;-78
2022/08/01 07:01:37;;;;;;;3.47;2.65;;;;;;;;;;5033384;28;20452;-77
2022/08/01 07:04:04;;;;;;;9.15;2.92;;;;;;;;;;5032197;28;20109;-77
2022/08/01 07:06:30;;;;;;;4.82;2.70;;;;;;;;;;5033046;28;20048;-78
2022/08/01 07:08:56;;;;;;;5.10;2.60;;;;;;;;;;5033066;28;20021;-77
2022/08/01 07:11:22;;;;;;;5.45;2.70;;;;;;;;;;5033216;28;20017;-78
2022/08/01 07:13:48;;;;;;;5.63;2.60;;;;;;;;;;5033257;28;20108;-78
2022/08/01 07:16:15;;;;;;;5.30;2.90;;;;;;;;;;5031928;28;20025;-78
2022/08/01 07:18:41;;;;;;;5.53;3.08;;;;;;;;;;5033196;28;20029;-78
2022/08/01 07:21:07;;;;;;;5.78;2.67;;;;;;;;;;5031710;28;20029;-78
2022/08/01 07:23:34;;;;;;;7.30;3.38;;;;;;;;;;5028320;28;20022;-79
2022/08/01 07:26:01;;;;;;;4.53;3.47;;;;;;;;;;5028817;28;20420;-78
2022/08/01 07:28:27;;;;;;;5.38;3.53;;;;;;;;;;5028536;28;20423;-78
2022/08/01 07:30:53;;;;;;;7.82;3.30;;;;;;;;;;5013576;28;20029;-78
2022/08/01 07:33:19;;;;;;;5.80;2.90;;;;;;;;;;5013348;28;20030;-78
2022/08/01 07:35:45;;;;;;;5.75;3.20;;;;;;;;;;5013009;28;20073;-78
2022/08/01 07:38:11;;;;;;;5.38;3.38;;;;;;;;;;5018448;28;20033;-78
2022/08/01 07:40:37;;;;;;;6.40;3.63;;;;;;;;;;5031493;28;20186;-78
2022/08/01 07:43:03;;;;;;;4.57;3.78;;;;;;;;;;5032003;28;20404;-78
2022/08/01 07:45:31;;;;;;;6.30;3.45;;;;;;;;;;5031631;28;20052;-78
2022/08/01 07:47:57;;;;;;;5.57;3.15;;;;;;;;;;5031297;28;20120;-78
2022/08/01 07:50:23;;;;;;;7.28;3.58;;;;;;;;;;5031305;28;20424;-78
2022/08/01 07:52:49;;;;;;;6.65;3.53;;;;;;;;;;5032660;28;20107;-78
2022/08/01 07:55:15;;;;;;;4.10;2.67;;;;;;;;;;5035786;28;20026;-77
2022/08/01 07:57:41;;;;;;;8.07;3.10;;;;;;;;;;5035515;28;20104;-76
2022/08/01 08:00:08;;;;;;;6.47;3.30;;;;;;;;;;5035606;28;20431;-76
2022/08/01 08:02:34;;;;;;;5.35;3.38;;;;;;;;;;5035514;28;20017;-76
2022/08/01 08:05:00;;;;;;;7.88;3.90;;;;;;;;;;5035518;28;20550;-76
2022/08/01 08:07:26;;;;;;;5.50;3.78;;;;;;;;;;5035446;28;20495;-76
2022/08/01 08:09:53;;;;;;;8.55;3.60;;;;;;;;;;5034477;28;20059;-76
2022/08/01 08:12:19;;;;;;;6.35;3.20;;;;;;;;;;5033851;28;20039;-75
2022/08/01 08:14:45;;;;;;;6.95;3.30;;;;;;;;;;5035222;28;20025;-76
2022/08/01 08:17:11;;;;;;;6.43;3.00;;;;;;;;;;5034983;28;20022;-75
2022/08/01 08:19:38;;;;;;;7.22;3.42;;;;;;;;;;5035466;28;20217;-76
2022/08/01 08:22:05;;;;;;;7.80;3.20;;;;;;;;;;5035574;28;20169;-77
2022/08/01 08:24:31;;;;;;;6.10;3.40;;;;;;;;;;5035426;28;20120;-76
2022/08/01 08:26:58;;;;;;;8.45;3.83;;;;;;;;;;5035241;28;20124;-75
2022/08/01 08:29:25;;;;;;;7.82;2.95;;;;;;;;;;5033648;28;20060;-76
2022/08/01 08:31:52;;;;;;;6.57;3.25;;;;;;;;;;5035213;28;20017;-76
2022/08/01 08:34:18;;;;;;;11.95;3.75;;;;;;;;;;5035097;28;20033;-76
2022/08/01 08:36:44;;;;;;;9.32;3.72;;;;;;;;;;5034860;28;20068;-76
2022/08/01 08:39:10;;;;;;;13.57;3.55;;;;;;;;;;5034943;28;20025;-76
2022/08/01 08:41:37;;;;;;;15.60;3.72;;;;;;;;;;5034968;28;20029;-76
2022/08/01 08:44:03;;;;;;;14.40;3.88;;;;;;;;;;5035038;28;20025;-76
2022/08/01 08:46:32;;;;;;;17.35;3.53;;;;;;;;;;5030092;28;20022;-76
2022/08/01 08:48:59;;;;;;;12.15;4.18;;;;;;;;;;5030216;28;20030;-75
2022/08/01 08:51:26;;;;;;;13.65;3.67;;;;;;;;;;5015108;28;20029;-75
2022/08/01 08:53:55;;;;;;;13.95;3.67;;;;;;;;;;5015113;28;20026;-75
2022/08/01 08:56:21;;;;;;;18.05;3.55;;;;;;;;;;5014994;28;20026;-75
2022/08/01 08:58:48;;;;;;;14.48;3.55;;;;;;;;;;5014809;28;20030;-75
2022/08/01 09:01:14;;;;;;;17.00;3.95;;;;;;;;;;5014884;28;20464;-75
2022/08/01 09:03:40;;;;;;;16.58;4.07;;;;;;;;;;5015134;28;20488;-75
2022/08/01 09:06:07;;;;;;;17.02;3.90;;;;;;;;;;5014438;28;20492;-75
2022/08/01 09:08:33;;;;;;;14.20;3.72;;;;;;;;;;5029912;28;20388;-75
2022/08/01 09:10:59;;;;;;;10.38;3.67;;;;;;;;;;5014826;28;20744;-75
2022/08/01 09:13:25;;;;;;;13.68;4.60;;;;;;;;;;5014741;28;20026;-75
2022/08/01 09:15:53;;;;;;;12.35;3.72;;;;;;;;;;5029988;28;20551;-75
2022/08/01 09:18:36;;;;;;;15.15;3.50;;;;;;;;;;5043244;28;20130;-75
2022/08/01 09:21:02;;;;;;;;;;;;;;;;;;5015124;28;20108;-75
2022/08/01 09:23:39;;;;;;;15.00;3.53;;;;;;;;;;5020721;28;19909;-75
2022/08/01 09:26:06;;;;;;;15.55;3.42;;;;;;;;;;5034319;28;20014;-75
2022/08/01 09:28:32;;;;;;;9.60;2.83;;;;;;;;;;5034478;28;20045;-76
2022/08/01 09:30:59;;;;;;;9.73;2.78;;;;;;;;;;5033909;28;20080;-77
2022/08/01 09:33:25;;;;;;;14.18;4.22;;;;;;;;;;5019745;28;20372;-76
2022/08/01 09:35:55;;;;;;;10.88;2.80;;;;;;;;;;5022694;28;20042;-76
2022/08/01 09:38:22;;;;;;;9.35;2.83;;;;;;;;;;5023949;28;20033;-77
2022/08/01 09:40:53;;;;;;;15.45;3.40;;;;;;;;;;5021704;28;20371;-77
2022/08/01 09:43:20;;;;;;;11.90;2.78;;;;;;;;;;5023565;28;20106;-76
2022/08/01 09:45:46;;;;;;;19.63;4.18;;;;;;;;;;5020226;28;20021;-76
2022/08/01 09:48:12;;;;;;;12.90;3.28;;;;;;;;;;5039026;28;20028;-77
2022/08/01 09:50:40;;;;;;;16.50;2.92;;;;;;;;;;5039875;28;20139;-77
2022/08/01 09:53:06;;;;;;;7.18;2.58;;;;;;;;;;5014645;28;20032;-78
2022/08/01 09:55:32;;;;;;;9.27;2.53;;;;;;;;;;5033197;28;20037;-76
2022/08/01 09:58:00;;;;;;;11.35;2.92;;;;;;;;;;5048960;28;20036;-75
2022/08/01 10:00:27;;;;;;;12.35;3.88;;;;;;;;;;5033689;28;20032;-76
2022/08/01 10:02:53;;;;;;;7.88;2.75;;;;;;;;;;5033596;28;20026;-75
2022/08/01 10:05:30;;;;;;;9.82;2.55;;;;;;;;;;5033702;28;20475;-76
2022/08/01 10:07:58;;;;;;;10.73;2.47;;;;;;;;;;5033770;28;20040;-75
2022/08/01 10:10:24;;;;;;;7.28;2.00;;;;;;;;;;5033824;28;20032;-76
2022/08/01 10:12:52;;;;;;;10.50;2.22;;;;;;;;;;5033339;28;20460;-76
2022/08/01 10:15:20;;;;;;;4.78;1.80;;;;;;;;;;5032410;28;20029;-76
2022/08/01 10:17:59;;;;;;;8.32;2.10;;;;;;;;;;5031989;28;20025;-76
2022/08/01 10:20:26;;;;;;;7.13;2.28;;;;;;;;;;5031280;28;20013;-76
2022/08/01 10:22:54;;;;;;;7.93;1.98;;;;;;;;;;5030063;28;20026;-76
2022/08/01 10:25:21;;;;;;;9.20;2.22;;;;;;;;;;5033170;28;20029;-76
2022/08/01 10:27:49;;;;;;;13.90;2.08;;;;;;;;;;5032925;28;20026;-76
2022/08/01 10:30:15;;;;;;;7.53;1.45;;;;;;;;;;5032761;28;20036;-76
2022/08/01 10:32:44;;;;;;;6.32;1.75;;;;;;;;;;5032710;28;20040;-76
2022/08/01 10:35:16;;;;;;;5.03;1.75;;;;;;;;;;5032606;28;20029;-77
2022/08/01 10:37:42;;;;;;;;;;;;;;;;;;5032088;28;20033;-76
2022/08/01 10:40:09;;;;;;;16.70;3.35;;;;;;;;;;5032541;28;19905;-77
2022/08/01 10:42:35;;;;;;;6.55;2.10;;;;;;;;;;5032358;28;20022;-76
2022/08/01 10:45:02;;;;;;;8.30;1.63;;;;;;;;;;5032568;28;20026;-76
2022/08/01 10:47:46;;;;;;;9.30;1.60;;;;;;;;;;5032494;28;20460;-76
2022/08/01 10:50:19;;;;;;;9.88;2.05;;;;;;;;;;5031498;28;20029;-77
2022/08/01 10:52:44;;;;;;;;;;;;;;;;;;5031693;28;20021;-76
2022/08/01 10:55:10;;;;;;;7.60;1.80;;;;;;;;;;5032351;28;20079;-76
2022/08/01 10:57:47;;;;;;;7.63;1.98;;;;;;;;;;5030702;28;20522;-76
2022/08/01 11:00:22;;;;;;;13.77;1.92;;;;;;;;;;5032104;28;20025;-77
2022/08/01 11:03:00;;;;;;;9.82;2.13;;;;;;;;;;5032212;28;20305;-77
2022/08/01 11:05:27;;;;;;;6.22;2.00;;;;;;;;;;5031966;28;20016;-76
2022/08/01 11:07:54;;;;;;;9.50;2.42;;;;;;;;;;5031422;28;20057;-77
2022/08/01 11:10:23;;;;;;;10.25;2.22;;;;;;;;;;5032535;28;20032;-75
2022/08/01 11:12:49;;;;;;;7.38;2.03;;;;;;;;;;5032214;28;20037;-76
2022/08/01 11:15:17;;;;;;;7.43;2.00;;;;;;;;;;5032440;28;20025;-76
2022/08/01 11:17:50;;;;;;;7.72;2.13;;;;;;;;;;5032057;28;20087;-77
2022/08/01 11:20:20;;;;;;;6.90;1.70;;;;;;;;;;5032001;28;20029;-76
2022/08/01 11:23:04;;;;;;;7.50;1.80;;;;;;;;;;5029442;28;20420;-76
2022/08/01 11:25:36;;;;;;;11.25;1.90;;;;;;;;;;5030158;28;20076;-76
2022/08/01 11:28:19;;;;;;;9.48;1.92;;;;;;;;;;5031626;28;20039;-77
2022/08/01 11:30:51;;;;;;;7.07;1.52;;;;;;;;;;5030421;28;20033;-76
2022/08/01 11:33:36;;;;;;;11.73;1.85;;;;;;;;;;5031870;28;20030;-76
2022/08/01 11:36:11;;;;;;;9.95;1.50;;;;;;;;;;5028316;28;20049;-76
2022/08/01 11:38:41;;;;;;;7.57;1.70;;;;;;;;;;5030241;28;20372;-76
2022/08/01 11:41:15;;;;;;;8.57;1.25;;;;;;;;;;5044551;28;20032;-76
2022/08/01 11:43:59;;;;;;;4.93;1.27;;;;;;;;;;5030171;28;20029;-77
2022/08/01 11:46:44;;;;;;;4.00;0.98;;;;;;;;;;5031689;28;20017;-76
2022/08/01 11:49:26;;;;;;;5.22;1.10;;;;;;;;;;5029466;28;20026;-76
2022/08/01 11:51:59;;;;;;;6.22;1.15;;;;;;;;;;5020546;28;20041;-76
2022/08/01 11:54:27;;;;;;;7.75;1.67;;;;;;;;;;5030357;28;20060;-77
2022/08/01 11:56:55;;;;;;;4.10;1.33;;;;;;;;;;5031808;28;20480;-77
2022/08/01 11:59:22;;;;;;;6.40;1.73;;;;;;;;;;5045720;28;20095;-76
2022/08/01 12:01:48;;;;;;;9.05;1.10;;;;;;;;;;5031048;28;20026;-76
2022/08/01 12:04:14;;;;;;;7.05;1.52;;;;;;;;;;5031112;28;20021;-76
2022/08/01 12:06:40;;;;;;;7.15;1.58;;;;;;;;;;5031136;28;20479;-76
2022/08/01 12:09:19;;;;;;;4.22;1.40;;;;;;;;;;5029895;28;20025;-76
2022/08/01 12:11:46;;;;;;;8.57;1.40;;;;;;;;;;5031716;28;20353;-76
2022/08/01 12:14:21;;;;;;;4.00;1.20;;;;;;;;;;5031347;28;20048;-76
2022/08/01 12:16:54;;;;;;;6.88;1.55;;;;;;;;;;5031099;28;20112;-75
2022/08/01 12:19:24;;;;;;;6.55;1.55;;;;;;;;;;5029324;28;20071;-76
2022/08/01 12:22:25;;;;;;;9.23;1.70;;;;;;;;;;5029953;28;20379;-76
2022/08/01 12:24:52;;;;;;;7.53;1.73;;;;;;;;;;4965711;28;20108;-76
2022/08/01 12:27:25;;;;;;;5.50;1.48;;;;;;;;;;5014673;28;20388;-76
2022/08/01 12:29:51;;;;;;;6.40;1.23;;;;;;;;;;5031450;28;20156;-76
2022/08/01 12:32:24;;;;;;;8.15;1.50;;;;;;;;;;5031255;28;20030;-76
2022/08/01 12:34:50;;;;;;;6.60;1.45;;;;;;;;;;5031604;28;20090;-76
2022/08/01 12:37:17;;;;;;;8.18;1.45;;;;;;;;;;5031298;28;20081;-76
2022/08/01 12:39:44;;;;;;;6.07;1.33;;;;;;;;;;5031669;28;20041;-75
2022/08/01 12:42:10;;;;;;;6.55;1.20;;;;;;;;;;5034828;28;20029;-75
2022/08/01 12:44:36;;;;;;;4.70;1.30;;;;;;;;;;5030162;28;20042;-75
2022/08/01 12:47:04;;;;;;;4.25;1.38;;;;;;;;;;5015368;28;20029;-76
2022/08/01 12:49:31;;;;;;;4.38;1.33;;;;;;;;;;5015354;28;20209;-75
2022/08/01 12:51:57;;;;;;;6.50;1.20;;;;;;;;;;5015524;28;20030;-75
2022/08/01 12:54:25;;;;;;;6.90;1.58;;;;;;;;;;5015395;28;20030;-74
2022/08/01 12:56:52;;;;;;;7.20;1.20;;;;;;;;;;5014873;28;20041;-75
2022/08/01 12:59:24;;;;;;;5.80;1.30;;;;;;;;;;5033177;28;20060;-75
2022/08/01 13:01:50;;;;;;;;;;;;;;;;;;5034731;28;20026;-75
2022/08/01 13:04:17;;;;;;;6.45;1.27;;;;;;;;;;5032407;28;20377;-75
2022/08/01 13:06:43;;;;;;;4.55;1.05;;;;;;;;;;5033758;28;20025;-75
2022/08/01 13:09:11;;;;;;;4.03;1.05;;;;;;;;;;5034592;28;20083;-75
2022/08/01 13:11:37;;;;;;;4.40;0.90;;;;;;;;;;5034349;28;20082;-75
2022/08/01 13:14:03;;;;;;;3.78;0.90;;;;;;;;;;5034437;28;20033;-74
2022/08/01 13:16:29;;;;;;;3.85;1.15;;;;;;;;;;5034601;28;20472;-75
2022/08/01 13:18:56;;;;;;;5.78;0.90;;;;;;;;;;5033265;28;20053;-75
2022/08/01 13:21:22;;;;;;;3.88;0.80;;;;;;;;;;5034548;28;20025;-75
2022/08/01 13:24:02;;;;;;;4.25;0.80;;;;;;;;;;5033006;28;20341;-75
2022/08/01 13:26:49;;;;;;;2.30;0.50;;;;;;;;;;5034397;28;20494;-75
2022/08/01 13:29:17;;;;;;;2.95;0.70;;;;;;;;;;5034450;28;20029;-75
2022/08/01 13:31:43;;;;;;;2.50;0.82;;;;;;;;;;5032803;28;20056;-75
2022/08/01 13:34:10;;;;;;;2.85;0.60;;;;;;;;;;5034615;28;20032;-76
2022/08/01 13:36:37;;;;;;;2.00;0.63;;;;;;;;;;5034318;28;20049;-75
2022/08/01 13:41:48;;;;;;;4.78;0.90;;;;;;;;;;5034242;28;20041;-75
2022/08/01 13:44:14;;;;;;;2.63;0.70;;;;;;;;;;5034190;28;20029;-75
2022/08/01 13:46:41;;;;;;;3.72;0.82;;;;;;;;;;5034057;28;20014;-75
2022/08/01 13:49:08;;;;;;;3.58;0.80;;;;;;;;;;5033905;28;20124;-75
2022/08/01 13:51:34;;;;;;;4.88;0.70;;;;;;;;;;5033995;28;20422;-75
2022/08/01 13:54:00;;;;;;;2.70;0.63;;;;;;;;;;5033929;28;20030;-75
2022/08/01 13:56:27;;;;;;;2.05;0.70;;;;;;;;;;5021908;28;20030;-75
2022/08/01 13:58:53;;;;;;;1.85;0.50;;;;;;;;;;5014380;28;20424;-75
2022/08/01 14:01:20;;;;;;;2.70;0.70;;;;;;;;;;5032448;28;20091;-75
2022/08/01 14:03:46;;;;;;;3.17;0.80;;;;;;;;;;5033915;28;20028;-75
2022/08/01 14:06:13;;;;;;;1.35;0.55;;;;;;;;;;5033908;28;20055;-75
2022/08/01 14:08:40;;;;;;;4.65;0.90;;;;;;;;;;5033996;28;20025;-75
2022/08/01 14:11:06;;;;;;;2.20;0.65;;;;;;;;;;5033683;28;20108;-75
2022/08/01 14:13:33;;;;;;;5.03;0.70;;;;;;;;;;5033438;28;20036;-75
2022/08/01 14:15:59;;;;;;;4.30;0.82;;;;;;;;;;5033427;28;20490;-75
2022/08/01 14:18:25;;;;;;;4.82;0.77;;;;;;;;;;5033227;28;20030;-75
2022/08/01 14:20:52;;;;;;;4.22;0.68;;;;;;;;;;5033381;28;20018;-75
2022/08/01 14:23:18;;;;;;;2.80;0.88;;;;;;;;;;5031807;28;20403;-75
2022/08/01 14:25:44;;;;;;;2.97;0.75;;;;;;;;;;5033241;28;20037;-76
2022/08/01 14:28:10;;;;;;;5.05;0.98;;;;;;;;;;5032191;28;20494;-75
2022/08/01 14:30:36;;;;;;;5.38;0.80;;;;;;;;;;5033439;28;20528;-75
2022/08/01 14:33:03;;;;;;;2.88;0.77;;;;;;;;;;5034282;28;20037;-75
2022/08/01 14:35:29;;;;;;;4.57;0.90;;;;;;;;;;5033764;28;20057;-75
2022/08/01 14:37:55;;;;;;;3.35;0.90;;;;;;;;;;5032427;28;20472;-76
2022/08/01 14:40:21;;;;;;;1.75;0.57;;;;;;;;;;5032682;28;20026;-76
2022/08/01 14:42:47;;;;;;;4.72;0.77;;;;;;;;;;5029866;28;20075;-75
2022/08/01 14:45:14;;;;;;;2.50;0.80;;;;;;;;;;5030405;28;20080;-75